sensor_id;sensor_type;location;lat;lon;timestamp;P1;durP1;ratioP1;P2;durP2;ratioP2
35877;SDS011;21982;49.804;24.072;2023-04-24T00:02:18;9.23;;;5.32;;
35877;SDS011;21982;49.804;24.072;2023-04-24T00:04:44;14.73;;;6.70;;
35877;SDS011;21982;49.804;24.072;2023-04-24T00:07:10;16.50;;;6.50;;
35877;SDS011;21982;49.804;24.072;2023-04-24T00:09:36;11.30;;;5.07;;
35877;SDS011;21982;49.804;24.072;2023-04-24T00:12:01;10.40;;;5.05;;
35877;SDS011;21982;49.804;24.072;2023-04-24T00:14:29;14.07;;;5.50;;
35877;SDS011;21982;49.804;24.072;2023-04-24T00:16:55;9.80;;;4.68;;
35877;SDS011;21982;49.804;24.072;2023-04-24T00:19:20;9.73;;;4.55;;
35877;SDS011;21982;49.804;24.072;2023-04-24T00:21:47;9.07;;;4.75;;
35877;SDS011;21982;49.804;24.072;2023-04-24T00:24:15;12.02;;;4.55;;
35877;SDS011;21982;49.804;24.072;2023-04-24T00:26:41;9.35;;;5.53;;
35877;SDS011;21982;49.804;24.072;2023-04-24T00:31:41;9.60;;;4.47;;
35877;SDS011;21982;49.804;24.072;2023-04-24T00:34:07;8.35;;;4.28;;
35877;SDS011;21982;49.804;24.072;2023-04-24T00:36:32;6.75;;;4.00;;
35877;SDS011;21982;49.804;24.072;2023-04-24T00:38:58;9.60;;;4.63;;
35877;SDS011;21982;49.804;24.072;2023-04-24T00:41:24;10.18;;;4.22;;
35877;SDS011;21982;49.804;24.072;2023-04-24T00:43:50;6.90;;;4.30;;
35877;SDS011;21982;49.804;24.072;2023-04-24T00:46:16;8.00;;;4.45;;
35877;SDS011;21982;49.804;24.072;2023-04-24T00:48:43;8.43;;;4.65;;
35877;SDS011;21982;49.804;24.072;2023-04-24T00:51:08;9.13;;;4.70;;
35877;SDS011;21982;49.804;24.072;2023-04-24T00:53:34;7.88;;;4.28;;
35877;SDS011;21982;49.804;24.072;2023-04-24T00:56:00;9.98;;;4.65;;
35877;SDS011;21982;49.804;24.072;2023-04-24T00:58:26;7.90;;;4.82;;
35877;SDS011;21982;49.804;24.072;2023-04-24T01:00:52;7.57;;;4.45;;
35877;SDS011;21982;49.804;24.072;2023-04-24T01:03:21;6.90;;;4.22;;
35877;SDS011;21982;49.804;24.072;2023-04-24T01:05:49;7.50;;;4.85;;
35877;SDS011;21982;49.804;24.072;2023-04-24T01:08:15;10.40;;;4.68;;
35877;SDS011;21982;49.804;24.072;2023-04-24T01:10:41;13.27;;;6.45;;
35877;SDS011;21982;49.804;24.072;2023-04-24T01:13:09;9.43;;;5.50;;
35877;SDS011;21982;49.804;24.072;2023-04-24T01:15:35;11.38;;;5.70;;
35877;SDS011;21982;49.804;24.072;2023-04-24T01:18:01;14.10;;;5.70;;
35877;SDS011;21982;49.804;24.072;2023-04-24T01:20:27;8.98;;;5.70;;
35877;SDS011;21982;49.804;24.072;2023-04-24T01:22:56;11.48;;;6.75;;
35877;SDS011;21982;49.804;24.072;2023-04-24T01:25:22;9.40;;;5.72;;
35877;SDS011;21982;49.804;24.072;2023-04-24T01:27:49;7.85;;;4.70;;
35877;SDS011;21982;49.804;24.072;2023-04-24T01:30:15;8.65;;;4.75;;
35877;SDS011;21982;49.804;24.072;2023-04-24T01:32:40;8.48;;;4.72;;
35877;SDS011;21982;49.804;24.072;2023-04-24T01:35:09;8.32;;;4.65;;
35877;SDS011;21982;49.804;24.072;2023-04-24T01:37:36;7.47;;;4.35;;
35877;SDS011;21982;49.804;24.072;2023-04-24T01:40:07;9.60;;;3.97;;
35877;SDS011;21982;49.804;24.072;2023-04-24T01:42:34;7.22;;;4.60;;
35877;SDS011;21982;49.804;24.072;2023-04-24T01:44:59;7.18;;;4.40;;
35877;SDS011;21982;49.804;24.072;2023-04-24T01:47:26;8.32;;;4.72;;
35877;SDS011;21982;49.804;24.072;2023-04-24T01:49:53;8.38;;;4.32;;
35877;SDS011;21982;49.804;24.072;2023-04-24T01:52:19;9.18;;;4.93;;
35877;SDS011;21982;49.804;24.072;2023-04-24T01:54:44;9.48;;;5.13;;
35877;SDS011;21982;49.804;24.072;2023-04-24T01:57:10;9.43;;;5.32;;
35877;SDS011;21982;49.804;24.072;2023-04-24T01:59:35;8.95;;;4.53;;
35877;SDS011;21982;49.804;24.072;2023-04-24T02:02:02;7.95;;;4.70;;
35877;SDS011;21982;49.804;24.072;2023-04-24T02:04:28;10.27;;;4.90;;
35877;SDS011;21982;49.804;24.072;2023-04-24T02:06:54;10.52;;;4.88;;
35877;SDS011;21982;49.804;24.072;2023-04-24T02:09:19;9.27;;;5.00;;
35877;SDS011;21982;49.804;24.072;2023-04-24T02:11:44;8.57;;;4.72;;
35877;SDS011;21982;49.804;24.072;2023-04-24T02:14:10;8.80;;;5.53;;
35877;SDS011;21982;49.804;24.072;2023-04-24T02:16:35;11.55;;;5.72;;
35877;SDS011;21982;49.804;24.072;2023-04-24T02:19:01;13.02;;;4.60;;
35877;SDS011;21982;49.804;24.072;2023-04-24T02:21:27;10.20;;;5.38;;
35877;SDS011;21982;49.804;24.072;2023-04-24T02:23:53;8.20;;;4.65;;
35877;SDS011;21982;49.804;24.072;2023-04-24T02:26:18;7.00;;;4.82;;
35877;SDS011;21982;49.804;24.072;2023-04-24T02:28:43;9.02;;;5.25;;
35877;SDS011;21982;49.804;24.072;2023-04-24T02:31:09;8.88;;;4.50;;
35877;SDS011;21982;49.804;24.072;2023-04-24T02:33:35;9.82;;;5.22;;
35877;SDS011;21982;49.804;24.072;2023-04-24T02:36:01;9.20;;;4.45;;
35877;SDS011;21982;49.804;24.072;2023-04-24T02:38:27;10.55;;;4.93;;
35877;SDS011;21982;49.804;24.072;2023-04-24T02:40:52;11.68;;;5.47;;
35877;SDS011;21982;49.804;24.072;2023-04-24T02:43:17;9.48;;;5.00;;
35877;SDS011;21982;49.804;24.072;2023-04-24T02:45:43;10.43;;;5.47;;
35877;SDS011;21982;49.804;24.072;2023-04-24T02:48:08;9.32;;;5.22;;
35877;SDS011;21982;49.804;24.072;2023-04-24T02:50:34;11.57;;;5.22;;
35877;SDS011;21982;49.804;24.072;2023-04-24T02:52:59;9.77;;;4.90;;
35877;SDS011;21982;49.804;24.072;2023-04-24T02:55:24;9.07;;;4.43;;
35877;SDS011;21982;49.804;24.072;2023-04-24T02:57:50;9.90;;;5.00;;
35877;SDS011;21982;49.804;24.072;2023-04-24T03:00:15;8.40;;;5.30;;
35877;SDS011;21982;49.804;24.072;2023-04-24T03:02:41;8.98;;;4.35;;
35877;SDS011;21982;49.804;24.072;2023-04-24T03:05:07;7.40;;;4.32;;
35877;SDS011;21982;49.804;24.072;2023-04-24T03:07:32;8.55;;;4.75;;
35877;SDS011;21982;49.804;24.072;2023-04-24T03:09:58;7.95;;;4.47;;
35877;SDS011;21982;49.804;24.072;2023-04-24T03:12:24;12.10;;;5.22;;
35877;SDS011;21982;49.804;24.072;2023-04-24T03:14:49;10.93;;;5.65;;
35877;SDS011;21982;49.804;24.072;2023-04-24T03:17:15;9.13;;;4.65;;
35877;SDS011;21982;49.804;24.072;2023-04-24T03:19:40;11.30;;;4.68;;
35877;SDS011;21982;49.804;24.072;2023-04-24T03:22:06;9.85;;;5.22;;
35877;SDS011;21982;49.804;24.072;2023-04-24T03:24:31;8.73;;;5.22;;
35877;SDS011;21982;49.804;24.072;2023-04-24T03:26:57;11.27;;;7.05;;
35877;SDS011;21982;49.804;24.072;2023-04-24T03:29:22;11.68;;;6.65;;
35877;SDS011;21982;49.804;24.072;2023-04-24T03:31:48;22.35;;;12.77;;
35877;SDS011;21982;49.804;24.072;2023-04-24T03:34:13;27.33;;;14.50;;
35877;SDS011;21982;49.804;24.072;2023-04-24T03:36:39;17.35;;;10.70;;
35877;SDS011;21982;49.804;24.072;2023-04-24T03:39:04;22.73;;;11.85;;
35877;SDS011;21982;49.804;24.072;2023-04-24T03:41:30;28.75;;;15.88;;
35877;SDS011;21982;49.804;24.072;2023-04-24T03:43:55;20.92;;;10.27;;
35877;SDS011;21982;49.804;24.072;2023-04-24T03:46:21;26.60;;;16.15;;
35877;SDS011;21982;49.804;24.072;2023-04-24T03:48:46;21.67;;;11.85;;
35877;SDS011;21982;49.804;24.072;2023-04-24T03:51:12;18.95;;;9.88;;
35877;SDS011;21982;49.804;24.072;2023-04-24T03:53:37;19.30;;;10.48;;
35877;SDS011;21982;49.804;24.072;2023-04-24T03:56:02;18.40;;;9.90;;
35877;SDS011;21982;49.804;24.072;2023-04-24T03:58:28;20.20;;;10.23;;
35877;SDS011;21982;49.804;24.072;2023-04-24T04:00:53;20.73;;;10.55;;
35877;SDS011;21982;49.804;24.072;2023-04-24T04:03:19;18.90;;;10.45;;
35877;SDS011;21982;49.804;24.072;2023-04-24T04:05:44;10.82;;;6.20;;
35877;SDS011;21982;49.804;24.072;2023-04-24T04:08:10;11.65;;;6.35;;
35877;SDS011;21982;49.804;24.072;2023-04-24T04:10:35;8.18;;;5.32;;
35877;SDS011;21982;49.804;24.072;2023-04-24T04:13:00;13.60;;;6.53;;
35877;SDS011;21982;49.804;24.072;2023-04-24T04:15:26;13.82;;;6.60;;
35877;SDS011;21982;49.804;24.072;2023-04-24T04:17:52;12.27;;;6.78;;
35877;SDS011;21982;49.804;24.072;2023-04-24T04:20:18;11.35;;;6.15;;
35877;SDS011;21982;49.804;24.072;2023-04-24T04:22:43;13.43;;;6.97;;
35877;SDS011;21982;49.804;24.072;2023-04-24T04:25:09;10.75;;;5.55;;
35877;SDS011;21982;49.804;24.072;2023-04-24T04:27:35;12.70;;;5.32;;
35877;SDS011;21982;49.804;24.072;2023-04-24T04:30:01;12.45;;;5.65;;
35877;SDS011;21982;49.804;24.072;2023-04-24T04:32:29;13.35;;;5.60;;
35877;SDS011;21982;49.804;24.072;2023-04-24T04:34:56;10.18;;;5.18;;
35877;SDS011;21982;49.804;24.072;2023-04-24T04:37:22;10.65;;;5.28;;
35877;SDS011;21982;49.804;24.072;2023-04-24T04:39:47;16.23;;;6.65;;
35877;SDS011;21982;49.804;24.072;2023-04-24T04:42:13;25.80;;;7.22;;
35877;SDS011;21982;49.804;24.072;2023-04-24T04:44:38;13.52;;;6.47;;
35877;SDS011;21982;49.804;24.072;2023-04-24T04:47:04;14.88;;;5.70;;
35877;SDS011;21982;49.804;24.072;2023-04-24T04:49:30;11.05;;;5.97;;
35877;SDS011;21982;49.804;24.072;2023-04-24T04:51:57;13.02;;;6.30;;
35877;SDS011;21982;49.804;24.072;2023-04-24T04:54:22;12.18;;;6.05;;
35877;SDS011;21982;49.804;24.072;2023-04-24T04:56:49;12.93;;;6.13;;
35877;SDS011;21982;49.804;24.072;2023-04-24T04:59:15;9.15;;;5.15;;
35877;SDS011;21982;49.804;24.072;2023-04-24T05:01:41;9.23;;;4.28;;
35877;SDS011;21982;49.804;24.072;2023-04-24T05:04:06;9.45;;;5.15;;
35877;SDS011;21982;49.804;24.072;2023-04-24T05:06:32;7.00;;;3.90;;
35877;SDS011;21982;49.804;24.072;2023-04-24T05:08:57;9.20;;;4.63;;
35877;SDS011;21982;49.804;24.072;2023-04-24T05:11:25;7.53;;;4.15;;
35877;SDS011;21982;49.804;24.072;2023-04-24T05:13:51;11.70;;;3.75;;
35877;SDS011;21982;49.804;24.072;2023-04-24T05:16:16;11.75;;;4.65;;
35877;SDS011;21982;49.804;24.072;2023-04-24T05:18:41;9.77;;;4.20;;
35877;SDS011;21982;49.804;24.072;2023-04-24T05:21:07;11.35;;;4.40;;
35877;SDS011;21982;49.804;24.072;2023-04-24T05:23:32;8.82;;;4.35;;
35877;SDS011;21982;49.804;24.072;2023-04-24T05:25:58;10.65;;;3.95;;
35877;SDS011;21982;49.804;24.072;2023-04-24T05:28:25;7.88;;;4.03;;
35877;SDS011;21982;49.804;24.072;2023-04-24T05:30:53;8.30;;;4.35;;
35877;SDS011;21982;49.804;24.072;2023-04-24T05:33:20;10.07;;;3.53;;
35877;SDS011;21982;49.804;24.072;2023-04-24T05:35:47;12.70;;;4.32;;
35877;SDS011;21982;49.804;24.072;2023-04-24T05:38:13;7.25;;;3.53;;
35877;SDS011;21982;49.804;24.072;2023-04-24T05:40:42;5.93;;;2.90;;
35877;SDS011;21982;49.804;24.072;2023-04-24T05:43:09;7.03;;;3.13;;
35877;SDS011;21982;49.804;24.072;2023-04-24T05:45:34;6.93;;;3.20;;
35877;SDS011;21982;49.804;24.072;2023-04-24T05:48:01;6.75;;;3.13;;
35877;SDS011;21982;49.804;24.072;2023-04-24T05:50:27;6.50;;;3.25;;
35877;SDS011;21982;49.804;24.072;2023-04-24T05:52:52;7.65;;;3.00;;
35877;SDS011;21982;49.804;24.072;2023-04-24T05:55:18;5.50;;;2.97;;
35877;SDS011;21982;49.804;24.072;2023-04-24T05:57:43;11.35;;;3.90;;
35877;SDS011;21982;49.804;24.072;2023-04-24T06:00:09;8.90;;;3.45;;
35877;SDS011;21982;49.804;24.072;2023-04-24T06:02:37;7.40;;;3.58;;
35877;SDS011;21982;49.804;24.072;2023-04-24T06:05:03;7.32;;;3.90;;
35877;SDS011;21982;49.804;24.072;2023-04-24T06:07:29;8.02;;;3.47;;
35877;SDS011;21982;49.804;24.072;2023-04-24T06:09:59;4.28;;;2.50;;
35877;SDS011;21982;49.804;24.072;2023-04-24T06:12:25;7.30;;;3.03;;
35877;SDS011;21982;49.804;24.072;2023-04-24T06:14:50;8.38;;;2.63;;
35877;SDS011;21982;49.804;24.072;2023-04-24T06:17:16;7.40;;;4.00;;
35877;SDS011;21982;49.804;24.072;2023-04-24T06:19:41;8.80;;;3.35;;
35877;SDS011;21982;49.804;24.072;2023-04-24T06:22:07;4.82;;;2.83;;
35877;SDS011;21982;49.804;24.072;2023-04-24T06:24:33;8.02;;;3.10;;
35877;SDS011;21982;49.804;24.072;2023-04-24T06:26:59;7.47;;;3.08;;
35877;SDS011;21982;49.804;24.072;2023-04-24T06:29:26;6.38;;;3.17;;
35877;SDS011;21982;49.804;24.072;2023-04-24T06:31:52;6.75;;;2.90;;
35877;SDS011;21982;49.804;24.072;2023-04-24T06:34:17;9.07;;;3.70;;
35877;SDS011;21982;49.804;24.072;2023-04-24T06:36:43;7.90;;;3.70;;
35877;SDS011;21982;49.804;24.072;2023-04-24T06:39:08;5.50;;;3.42;;
35877;SDS011;21982;49.804;24.072;2023-04-24T06:41:34;6.38;;;3.38;;
35877;SDS011;21982;49.804;24.072;2023-04-24T06:44:00;7.05;;;3.83;;
35877;SDS011;21982;49.804;24.072;2023-04-24T06:46:26;7.25;;;3.60;;
35877;SDS011;21982;49.804;24.072;2023-04-24T06:48:55;9.02;;;3.17;;
35877;SDS011;21982;49.804;24.072;2023-04-24T06:51:24;8.40;;;3.80;;
35877;SDS011;21982;49.804;24.072;2023-04-24T06:53:53;6.82;;;3.10;;
35877;SDS011;21982;49.804;24.072;2023-04-24T06:56:19;7.55;;;3.38;;
35877;SDS011;21982;49.804;24.072;2023-04-24T06:58:45;6.70;;;3.55;;
35877;SDS011;21982;49.804;24.072;2023-04-24T07:01:11;7.45;;;3.83;;
35877;SDS011;21982;49.804;24.072;2023-04-24T07:03:37;6.43;;;3.15;;
35877;SDS011;21982;49.804;24.072;2023-04-24T07:06:02;7.90;;;3.45;;
35877;SDS011;21982;49.804;24.072;2023-04-24T07:08:28;7.82;;;3.72;;
35877;SDS011;21982;49.804;24.072;2023-04-24T07:10:55;7.82;;;3.03;;
35877;SDS011;21982;49.804;24.072;2023-04-24T07:13:21;9.73;;;3.13;;
35877;SDS011;21982;49.804;24.072;2023-04-24T07:15:46;9.45;;;3.40;;
35877;SDS011;21982;49.804;24.072;2023-04-24T07:18:15;6.47;;;2.80;;
35877;SDS011;21982;49.804;24.072;2023-04-24T07:20:40;6.50;;;2.97;;
35877;SDS011;21982;49.804;24.072;2023-04-24T07:23:06;6.43;;;2.92;;
35877;SDS011;21982;49.804;24.072;2023-04-24T07:25:31;6.97;;;3.63;;
35877;SDS011;21982;49.804;24.072;2023-04-24T07:27:57;6.07;;;2.83;;
35877;SDS011;21982;49.804;24.072;2023-04-24T07:30:22;8.55;;;3.25;;
35877;SDS011;21982;49.804;24.072;2023-04-24T07:32:48;12.55;;;3.25;;
35877;SDS011;21982;49.804;24.072;2023-04-24T07:35:14;8.27;;;3.25;;
35877;SDS011;21982;49.804;24.072;2023-04-24T07:37:40;8.10;;;2.90;;
35877;SDS011;21982;49.804;24.072;2023-04-24T07:40:10;8.27;;;2.90;;
35877;SDS011;21982;49.804;24.072;2023-04-24T07:42:37;9.60;;;3.25;;
35877;SDS011;21982;49.804;24.072;2023-04-24T07:45:03;7.30;;;2.90;;
35877;SDS011;21982;49.804;24.072;2023-04-24T07:47:29;9.23;;;3.20;;
35877;SDS011;21982;49.804;24.072;2023-04-24T07:49:54;5.95;;;3.03;;
35877;SDS011;21982;49.804;24.072;2023-04-24T07:52:20;26.13;;;4.43;;
35877;SDS011;21982;49.804;24.072;2023-04-24T07:54:45;7.60;;;3.10;;
35877;SDS011;21982;49.804;24.072;2023-04-24T07:57:11;7.03;;;3.58;;
35877;SDS011;21982;49.804;24.072;2023-04-24T07:59:36;8.27;;;2.85;;
35877;SDS011;21982;49.804;24.072;2023-04-24T08:02:01;5.07;;;2.90;;
35877;SDS011;21982;49.804;24.072;2023-04-24T08:04:27;5.60;;;3.20;;
35877;SDS011;21982;49.804;24.072;2023-04-24T08:06:52;4.95;;;3.30;;
35877;SDS011;21982;49.804;24.072;2023-04-24T08:09:18;8.80;;;3.30;;
35877;SDS011;21982;49.804;24.072;2023-04-24T08:11:43;10.63;;;4.00;;
35877;SDS011;21982;49.804;24.072;2023-04-24T08:14:09;9.20;;;3.50;;
35877;SDS011;21982;49.804;24.072;2023-04-24T08:16:34;5.65;;;3.25;;
35877;SDS011;21982;49.804;24.072;2023-04-24T08:19:00;10.00;;;3.63;;
35877;SDS011;21982;49.804;24.072;2023-04-24T08:21:25;9.27;;;3.28;;
35877;SDS011;21982;49.804;24.072;2023-04-24T08:23:52;6.63;;;2.97;;
35877;SDS011;21982;49.804;24.072;2023-04-24T08:26:17;5.95;;;2.80;;
35877;SDS011;21982;49.804;24.072;2023-04-24T08:28:43;4.88;;;3.08;;
35877;SDS011;21982;49.804;24.072;2023-04-24T08:31:08;9.18;;;3.70;;
35877;SDS011;21982;49.804;24.072;2023-04-24T08:33:34;8.45;;;2.95;;
35877;SDS011;21982;49.804;24.072;2023-04-24T08:36:01;7.70;;;3.22;;
35877;SDS011;21982;49.804;24.072;2023-04-24T08:38:28;6.97;;;2.92;;
35877;SDS011;21982;49.804;24.072;2023-04-24T08:40:53;7.93;;;3.25;;
35877;SDS011;21982;49.804;24.072;2023-04-24T08:43:21;8.27;;;3.47;;
35877;SDS011;21982;49.804;24.072;2023-04-24T08:45:46;12.10;;;3.92;;
35877;SDS011;21982;49.804;24.072;2023-04-24T08:48:12;6.70;;;3.63;;
35877;SDS011;21982;49.804;24.072;2023-04-24T08:50:38;8.82;;;3.33;;
35877;SDS011;21982;49.804;24.072;2023-04-24T08:53:06;8.43;;;3.08;;
35877;SDS011;21982;49.804;24.072;2023-04-24T08:55:33;11.68;;;3.35;;
35877;SDS011;21982;49.804;24.072;2023-04-24T08:57:59;7.47;;;3.28;;
35877;SDS011;21982;49.804;24.072;2023-04-24T09:00:25;5.20;;;2.83;;
35877;SDS011;21982;49.804;24.072;2023-04-24T09:02:53;7.05;;;2.88;;
35877;SDS011;21982;49.804;24.072;2023-04-24T09:05:18;6.55;;;3.20;;
35877;SDS011;21982;49.804;24.072;2023-04-24T09:07:49;8.40;;;3.85;;
35877;SDS011;21982;49.804;24.072;2023-04-24T09:10:19;7.55;;;3.47;;
35877;SDS011;21982;49.804;24.072;2023-04-24T09:12:46;5.07;;;3.10;;
35877;SDS011;21982;49.804;24.072;2023-04-24T09:15:11;11.57;;;3.25;;
35877;SDS011;21982;49.804;24.072;2023-04-24T09:17:37;8.10;;;3.40;;
35877;SDS011;21982;49.804;24.072;2023-04-24T09:20:03;7.75;;;3.35;;
35877;SDS011;21982;49.804;24.072;2023-04-24T09:22:32;5.97;;;3.30;;
35877;SDS011;21982;49.804;24.072;2023-04-24T09:25:04;6.40;;;3.13;;
35877;SDS011;21982;49.804;24.072;2023-04-24T09:27:32;5.88;;;3.15;;
35877;SDS011;21982;49.804;24.072;2023-04-24T09:29:58;7.18;;;3.10;;
35877;SDS011;21982;49.804;24.072;2023-04-24T09:32:25;21.40;;;4.57;;
35877;SDS011;21982;49.804;24.072;2023-04-24T09:35:07;6.30;;;3.63;;
35877;SDS011;21982;49.804;24.072;2023-04-24T09:37:38;5.35;;;2.85;;
35877;SDS011;21982;49.804;24.072;2023-04-24T09:40:08;7.13;;;3.00;;
35877;SDS011;21982;49.804;24.072;2023-04-24T09:42:33;5.70;;;3.25;;
35877;SDS011;21982;49.804;24.072;2023-04-24T09:44:59;8.70;;;3.60;;
35877;SDS011;21982;49.804;24.072;2023-04-24T09:47:25;6.78;;;3.25;;
35877;SDS011;21982;49.804;24.072;2023-04-24T09:49:51;10.45;;;3.17;;
35877;SDS011;21982;49.804;24.072;2023-04-24T09:52:23;6.13;;;3.20;;
35877;SDS011;21982;49.804;24.072;2023-04-24T09:54:53;6.35;;;3.13;;
35877;SDS011;21982;49.804;24.072;2023-04-24T09:57:19;5.55;;;3.17;;
35877;SDS011;21982;49.804;24.072;2023-04-24T09:59:45;4.45;;;2.78;;
35877;SDS011;21982;49.804;24.072;2023-04-24T10:02:20;4.97;;;2.55;;
35877;SDS011;21982;49.804;24.072;2023-04-24T10:04:55;7.78;;;3.85;;
35877;SDS011;21982;49.804;24.072;2023-04-24T10:07:25;7.35;;;2.88;;
35877;SDS011;21982;49.804;24.072;2023-04-24T10:09:51;8.15;;;3.47;;
35877;SDS011;21982;49.804;24.072;2023-04-24T10:12:16;7.38;;;2.83;;
35877;SDS011;21982;49.804;24.072;2023-04-24T10:14:42;9.07;;;2.75;;
35877;SDS011;21982;49.804;24.072;2023-04-24T10:17:09;6.95;;;3.00;;
35877;SDS011;21982;49.804;24.072;2023-04-24T10:19:36;7.40;;;3.00;;
35877;SDS011;21982;49.804;24.072;2023-04-24T10:22:02;6.25;;;3.15;;
35877;SDS011;21982;49.804;24.072;2023-04-24T10:24:28;5.47;;;2.92;;
35877;SDS011;21982;49.804;24.072;2023-04-24T10:26:54;5.30;;;2.83;;
35877;SDS011;21982;49.804;24.072;2023-04-24T10:29:21;6.40;;;3.25;;
35877;SDS011;21982;49.804;24.072;2023-04-24T10:31:47;5.10;;;2.90;;
35877;SDS011;21982;49.804;24.072;2023-04-24T10:34:13;6.43;;;3.22;;
35877;SDS011;21982;49.804;24.072;2023-04-24T10:36:41;6.22;;;3.10;;
35877;SDS011;21982;49.804;24.072;2023-04-24T10:39:11;7.75;;;2.95;;
35877;SDS011;21982;49.804;24.072;2023-04-24T10:41:39;9.50;;;2.70;;
35877;SDS011;21982;49.804;24.072;2023-04-24T10:44:15;6.28;;;2.95;;
35877;SDS011;21982;49.804;24.072;2023-04-24T10:46:45;3.78;;;2.20;;
35877;SDS011;21982;49.804;24.072;2023-04-24T10:49:14;4.63;;;2.65;;
35877;SDS011;21982;49.804;24.072;2023-04-24T10:52:22;6.00;;;2.70;;
35877;SDS011;21982;49.804;24.072;2023-04-24T10:59:43;6.25;;;2.65;;
35877;SDS011;21982;49.804;24.072;2023-04-24T11:02:09;5.13;;;2.50;;
35877;SDS011;21982;49.804;24.072;2023-04-24T11:04:35;14.73;;;3.28;;
35877;SDS011;21982;49.804;24.072;2023-04-24T11:07:02;4.30;;;2.70;;
35877;SDS011;21982;49.804;24.072;2023-04-24T11:09:30;3.60;;;1.70;;
35877;SDS011;21982;49.804;24.072;2023-04-24T11:12:07;9.23;;;2.20;;
35877;SDS011;21982;49.804;24.072;2023-04-24T11:23:08;10.05;;;2.83;;
35877;SDS011;21982;49.804;24.072;2023-04-24T11:25:34;7.25;;;2.25;;
35877;SDS011;21982;49.804;24.072;2023-04-24T11:28:04;3.45;;;2.00;;
35877;SDS011;21982;49.804;24.072;2023-04-24T11:30:31;7.18;;;2.75;;
35877;SDS011;21982;49.804;24.072;2023-04-24T11:33:02;16.05;;;3.20;;
35877;SDS011;21982;49.804;24.072;2023-04-24T11:35:29;6.57;;;3.25;;
35877;SDS011;21982;49.804;24.072;2023-04-24T11:37:55;4.28;;;2.88;;
35877;SDS011;21982;49.804;24.072;2023-04-24T11:40:21;6.68;;;3.05;;
35877;SDS011;21982;49.804;24.072;2023-04-24T11:42:51;6.68;;;3.40;;
35877;SDS011;21982;49.804;24.072;2023-04-24T11:45:18;13.80;;;3.45;;
35877;SDS011;21982;49.804;24.072;2023-04-24T11:47:46;11.45;;;3.03;;
35877;SDS011;21982;49.804;24.072;2023-04-24T11:50:12;9.05;;;3.10;;
35877;SDS011;21982;49.804;24.072;2023-04-24T11:52:40;6.97;;;3.13;;
35877;SDS011;21982;49.804;24.072;2023-04-24T11:55:07;8.73;;;3.15;;
35877;SDS011;21982;49.804;24.072;2023-04-24T11:57:52;7.40;;;2.95;;
35877;SDS011;21982;49.804;24.072;2023-04-24T12:00:39;4.43;;;2.72;;
35877;SDS011;21982;49.804;24.072;2023-04-24T12:03:08;5.43;;;2.72;;
35877;SDS011;21982;49.804;24.072;2023-04-24T12:05:37;6.65;;;3.90;;
35877;SDS011;21982;49.804;24.072;2023-04-24T12:08:03;6.50;;;3.50;;
35877;SDS011;21982;49.804;24.072;2023-04-24T12:10:32;6.20;;;3.03;;
35877;SDS011;21982;49.804;24.072;2023-04-24T12:12:59;7.45;;;3.03;;
35877;SDS011;21982;49.804;24.072;2023-04-24T12:15:25;8.65;;;3.20;;
35877;SDS011;21982;49.804;24.072;2023-04-24T12:17:52;5.45;;;2.80;;
35877;SDS011;21982;49.804;24.072;2023-04-24T12:20:23;7.75;;;2.70;;
35877;SDS011;21982;49.804;24.072;2023-04-24T12:22:55;6.47;;;3.03;;
35877;SDS011;21982;49.804;24.072;2023-04-24T12:25:23;2.83;;;2.00;;
35877;SDS011;21982;49.804;24.072;2023-04-24T12:27:53;4.88;;;2.30;;
35877;SDS011;21982;49.804;24.072;2023-04-24T12:30:29;6.00;;;2.75;;
35877;SDS011;21982;49.804;24.072;2023-04-24T12:32:56;7.15;;;2.67;;
35877;SDS011;21982;49.804;24.072;2023-04-24T12:35:24;5.55;;;2.40;;
35877;SDS011;21982;49.804;24.072;2023-04-24T12:37:50;4.85;;;2.28;;
35877;SDS011;21982;49.804;24.072;2023-04-24T12:40:16;8.50;;;2.20;;
35877;SDS011;21982;49.804;24.072;2023-04-24T12:42:44;15.82;;;3.08;;
35877;SDS011;21982;49.804;24.072;2023-04-24T12:45:11;6.38;;;2.70;;
35877;SDS011;21982;49.804;24.072;2023-04-24T12:47:37;8.05;;;2.67;;
35877;SDS011;21982;49.804;24.072;2023-04-24T12:50:03;7.90;;;2.67;;
35877;SDS011;21982;49.804;24.072;2023-04-24T12:52:29;4.82;;;2.08;;
35877;SDS011;21982;49.804;24.072;2023-04-24T12:54:56;3.00;;;2.03;;
35877;SDS011;21982;49.804;24.072;2023-04-24T12:57:23;5.95;;;2.40;;
35877;SDS011;21982;49.804;24.072;2023-04-24T12:59:50;3.22;;;1.60;;
35877;SDS011;21982;49.804;24.072;2023-04-24T13:02:17;5.65;;;1.95;;
35877;SDS011;21982;49.804;24.072;2023-04-24T13:04:46;3.33;;;1.88;;
35877;SDS011;21982;49.804;24.072;2023-04-24T13:07:12;3.63;;;1.98;;
35877;SDS011;21982;49.804;24.072;2023-04-24T13:09:42;5.57;;;2.63;;
35877;SDS011;21982;49.804;24.072;2023-04-24T13:12:09;6.40;;;2.83;;
35877;SDS011;21982;49.804;24.072;2023-04-24T13:14:34;10.20;;;6.13;;
35877;SDS011;21982;49.804;24.072;2023-04-24T13:17:00;6.53;;;2.85;;
35877;SDS011;21982;49.804;24.072;2023-04-24T13:19:26;7.25;;;2.85;;
35877;SDS011;21982;49.804;24.072;2023-04-24T13:21:52;23.70;;;4.50;;
35877;SDS011;21982;49.804;24.072;2023-04-24T13:24:20;14.68;;;2.78;;
35877;SDS011;21982;49.804;24.072;2023-04-24T13:26:45;5.45;;;3.35;;
35877;SDS011;21982;49.804;24.072;2023-04-24T13:29:11;5.85;;;2.80;;
35877;SDS011;21982;49.804;24.072;2023-04-24T13:31:36;6.80;;;3.00;;
35877;SDS011;21982;49.804;24.072;2023-04-24T13:34:02;5.43;;;2.58;;
35877;SDS011;21982;49.804;24.072;2023-04-24T13:36:28;9.20;;;3.00;;
35877;SDS011;21982;49.804;24.072;2023-04-24T13:38:54;17.42;;;4.22;;
35877;SDS011;21982;49.804;24.072;2023-04-24T13:41:19;8.52;;;2.70;;
35877;SDS011;21982;49.804;24.072;2023-04-24T13:43:45;6.93;;;2.88;;
35877;SDS011;21982;49.804;24.072;2023-04-24T13:46:10;5.40;;;2.90;;
35877;SDS011;21982;49.804;24.072;2023-04-24T13:48:35;9.85;;;3.33;;
35877;SDS011;21982;49.804;24.072;2023-04-24T13:51:01;7.75;;;3.20;;
35877;SDS011;21982;49.804;24.072;2023-04-24T13:53:26;8.93;;;3.35;;
35877;SDS011;21982;49.804;24.072;2023-04-24T13:55:51;5.38;;;3.15;;
35877;SDS011;21982;49.804;24.072;2023-04-24T13:58:17;5.82;;;2.88;;
35877;SDS011;21982;49.804;24.072;2023-04-24T14:00:42;6.35;;;3.10;;
35877;SDS011;21982;49.804;24.072;2023-04-24T14:03:08;9.68;;;3.80;;
35877;SDS011;21982;49.804;24.072;2023-04-24T14:05:33;6.50;;;2.90;;
35877;SDS011;21982;49.804;24.072;2023-04-24T14:07:58;8.50;;;3.10;;
35877;SDS011;21982;49.804;24.072;2023-04-24T14:10:24;8.68;;;3.65;;
35877;SDS011;21982;49.804;24.072;2023-04-24T14:12:50;7.43;;;3.42;;
35877;SDS011;21982;49.804;24.072;2023-04-24T14:15:16;9.13;;;3.00;;
35877;SDS011;21982;49.804;24.072;2023-04-24T14:17:41;9.73;;;3.10;;
35877;SDS011;21982;49.804;24.072;2023-04-24T14:20:07;5.90;;;3.00;;
35877;SDS011;21982;49.804;24.072;2023-04-24T14:22:34;6.00;;;3.17;;
35877;SDS011;21982;49.804;24.072;2023-04-24T14:24:59;7.75;;;3.03;;
35877;SDS011;21982;49.804;24.072;2023-04-24T14:27:25;8.60;;;3.40;;
35877;SDS011;21982;49.804;24.072;2023-04-24T14:29:51;14.13;;;4.32;;
35877;SDS011;21982;49.804;24.072;2023-04-24T14:32:17;12.98;;;4.28;;
35877;SDS011;21982;49.804;24.072;2023-04-24T14:34:42;6.22;;;3.13;;
35877;SDS011;21982;49.804;24.072;2023-04-24T14:37:07;15.02;;;4.20;;
35877;SDS011;21982;49.804;24.072;2023-04-24T14:39:33;8.85;;;3.75;;
35877;SDS011;21982;49.804;24.072;2023-04-24T14:41:58;12.60;;;4.38;;
35877;SDS011;21982;49.804;24.072;2023-04-24T14:44:24;18.30;;;3.45;;